Time;durP1;ratioP1;P1;durP2;ratioP2;P2;SDS_P1;SDS_P2;PMS_P1;PMS_P2;Temp;Humidity;BMP_temperature;BMP_pressure;BME280_temperature;BME280_humidity;BME280_pressure;Samples;Min_cycle;Max_cycle;Signal;HPM_P1;HPM_P2
2022/06/08 00:00:56;;;;;;;;;;;;;;;;;;2058243;28;19918;-78
2022/06/08 00:01:57;;;;;;;;;;;;;;;;;;2058516;28;20386;-78
2022/06/08 00:03:00;;;;;;;;;;;;;;;;;;2049775;29;19914;-78
2022/06/08 00:04:04;;;;;;;;;;;;;;;;;;2050187;28;19925;-78
2022/06/08 00:05:04;;;;;;;;;;;;;;;;;;2058224;28;19929;-79
2022/06/08 00:06:06;;;;;;;;;;;;;;;;;;2058307;28;19925;-79
2022/06/08 00:07:06;;;;;;;;;;;;;;;;;;2058172;28;19914;-79
2022/06/08 00:08:06;;;;;;;;;;;;;;;;;;2058343;28;19965;-79
2022/06/08 00:09:07;;;;;;;;;;;;;;;;;;2057653;28;19917;-79
2022/06/08 00:10:07;;;;;;;;;;;;;;;;;;2057861;28;19914;-79
2022/06/08 00:11:08;;;;;;;;;;;;;;;;;;2058084;28;19973;-79
2022/06/08 00:12:08;;;;;;;;;;;;;;;;;;2058062;28;20016;-78
2022/06/08 00:13:09;;;;;;;;;;;;;;;;;;2057349;28;19914;-79
2022/06/08 00:14:09;;;;;;;;;;;;;;;;;;2058185;28;19957;-79
2022/06/08 00:15:11;;;;;;;;;;;;;;;;;;2058233;28;19936;-79
2022/06/08 00:16:13;;;;;;;;;;;;;;;;;;2058348;28;19997;-79
2022/06/08 00:17:13;;;;;;;;;;;;;;;;;;2058066;28;20027;-79
2022/06/08 00:18:13;;;;;;;;;;;;;;;;;;2049785;29;19922;-79
2022/06/08 00:19:14;;;;;;;;;;;;;;;;;;2041792;29;20010;-79
2022/06/08 00:20:14;;;;;;;;;;;;;;;;;;2049609;29;20044;-86
2022/06/08 00:21:15;;;;;;;;;;;;;;;;;;2058199;28;20083;-86
2022/06/08 00:22:17;;;;;;;;;;;;;;;;;;2058009;28;20369;-86
2022/06/08 00:23:17;;;;;;;;;;;;;;;;;;2058066;28;19914;-86
2022/06/08 00:24:19;;;;;;;;;;;;;;;;;;2058102;28;19950;-86
2022/06/08 00:25:20;;;;;;;;;;;;;;;;;;2049562;29;19953;-87
2022/06/08 00:26:20;;;;;;;;;;;;;;;;;;2049737;28;20344;-88
2022/06/08 00:27:20;;;;;;;;;;;;;;;;;;2058174;28;19925;-87
2022/06/08 00:28:21;;;;;;;;;;;;;;;;;;2049451;29;19926;-86
2022/06/08 00:29:21;;;;;;;;;;;;;;;;;;2049748;29;20005;-87
2022/06/08 00:30:22;;;;;;;;;;;;;;;;;;2058033;28;19937;-87
2022/06/08 00:31:22;;;;;;;;;;;;;;;;;;2058131;28;19918;-86
2022/06/08 00:32:22;;;;;;;;;;;;;;;;;;2058072;28;19914;-87
2022/06/08 00:33:23;;;;;;;;;;;;;;;;;;2058073;28;19918;-87
2022/06/08 00:34:23;;;;;;;;;;;;;;;;;;2058138;28;19914;-87
2022/06/08 00:35:24;;;;;;;;;;;;;;;;;;2058068;28;20223;-86
2022/06/08 00:36:24;;;;;;;;;;;;;;;;;;2049492;29;19941;-85
2022/06/08 00:37:25;;;;;;;;;;;;;;;;;;2049565;29;19914;-86
2022/06/08 00:38:25;;;;;;;;;;;;;;;;;;2049493;29;19914;-86
2022/06/08 00:39:25;;;;;;;;;;;;;;;;;;2049631;29;19915;-86
2022/06/08 00:40:30;;;;;;;;;;;;;;;;;;2058115;28;20286;-85
2022/06/08 00:41:30;;;;;;;;;;;;;;;;;;2049441;29;19918;-86
2022/06/08 00:42:30;;;;;;;;;;;;;;;;;;2049619;29;20340;-88
2022/06/08 00:43:31;;;;;;;;;;;;;;;;;;2057917;28;20318;-86
2022/06/08 00:44:35;;;;;;;;;;;;;;;;;;2057994;28;19914;-86
2022/06/08 00:45:36;;;;;;;;;;;;;;;;;;2057937;28;19925;-86
2022/06/08 00:46:36;;;;;;;;;;;;;;;;;;2057930;28;19964;-85
2022/06/08 00:47:52;;;;;;;;;;;;;;;;;;2057891;28;19929;-86
2022/06/08 00:48:54;;;;;;;;;;;;;;;;;;2049501;29;19918;-86
2022/06/08 00:49:57;;;;;;;;;;;;;;;;;;2049799;28;19918;-87
2022/06/08 00:50:58;;;;;;;;;;;;;;;;;;2057883;28;20291;-86
2022/06/08 00:52:00;;;;;;;;;;;;;;;;;;2058077;28;19914;-86
2022/06/08 00:53:00;;;;;;;;;;;;;;;;;;2058225;28;19949;-88
2022/06/08 00:54:03;;;;;;;;;;;;;;;;;;2058020;28;19914;-86
2022/06/08 00:55:10;;;;;;;;;;;;;;;;;;2057919;28;19929;-86
2022/06/08 00:56:11;;;;;;;;;;;;;;;;;;2049455;29;20406;-87
2022/06/08 00:57:15;;;;;;;;;;;;;;;;;;2049387;28;19992;-86
2022/06/08 00:58:19;;;;;;;;;;;;;;;;;;2057840;28;19914;-85
2022/06/08 00:59:19;;;;;;;;;;;;;;;;;;2057830;28;20012;-86
2022/06/08 01:00:39;;;;;;;;;;;;;;;;;;2057879;28;19915;-85
2022/06/08 01:01:39;;;;;;;;;;;;;;;;;;2049370;29;19925;-85
2022/06/08 01:02:40;;;;;;;;;;;;;;;;;;2049499;29;19914;-87
2022/06/08 01:03:41;;;;;;;;;;;;;;;;;;2057665;28;20335;-87
2022/06/08 01:04:41;;;;;;;;;;;;;;;;;;2049407;29;19980;-87
2022/06/08 01:05:46;;;;;;;;;;;;;;;;;;2049423;29;20001;-87
2022/06/08 01:06:50;;;;;;;;;;;;;;;;;;2057916;28;19922;-87
2022/06/08 01:07:51;;;;;;;;;;;;;;;;;;2049221;29;19919;-85
2022/06/08 01:08:53;;;;;;;;;;;;;;;;;;2049540;28;19958;-87
2022/06/08 01:09:53;;;;;;;;;;;;;;;;;;2057080;28;19917;-87
2022/06/08 01:10:56;;;;;;;;;;;;;;;;;;2057295;28;19936;-86
2022/06/08 01:11:58;;;;;;;;;;;;;;;;;;2057788;28;20279;-87
2022/06/08 01:13:04;;;;;;;;;;;;;;;;;;2057917;28;19914;-87
2022/06/08 01:14:06;;;;;;;;;;;;;;;;;;2059501;28;19914;-87
2022/06/08 01:15:07;;;;;;;;;;;;;;;;;;2057738;28;19929;-85
2022/06/08 01:16:08;;;;;;;;;;;;;;;;;;2057753;28;20005;-86
2022/06/08 01:17:11;;;;;;;;;;;;;;;;;;2057662;28;19947;-86
2022/06/08 01:18:12;;;;;;;;;;;;;;;;;;2057693;28;20437;-85
2022/06/08 01:19:12;;;;;;;;;;;;;;;;;;2057693;28;19914;-85
2022/06/08 01:20:12;;;;;;;;;;;;;;;;;;2057671;28;19938;-88
2022/06/08 01:21:22;;;;;;;;;;;;;;;;;;2057706;28;19918;-85
2022/06/08 01:22:23;;;;;;;;;;;;;;;;;;2049178;29;20009;-87
2022/06/08 01:23:23;;;;;;;;;;;;;;;;;;2049521;28;20437;-85
2022/06/08 01:24:25;;;;;;;;;;;;;;;;;;2057422;28;19922;-87
2022/06/08 01:25:29;;;;;;;;;;;;;;;;;;2057686;28;19953;-85
2022/06/08 01:26:32;;;;;;;;;;;;;;;;;;2049164;29;19918;-85
2022/06/08 01:27:51;;;;;;;;;;;;;;;;;;2049653;28;20345;-87
2022/06/08 01:28:54;;;;;;;;;;;;;;;;;;2057579;28;19918;-85
2022/06/08 01:29:57;;;;;;;;;;;;;;;;;;2057754;28;19968;-84
2022/06/08 01:31:00;;;;;;;;;;;;;;;;;;2057539;28;19968;-84
2022/06/08 01:32:19;;;;;;;;;;;;;;;;;;2049101;28;20009;-85
2022/06/08 01:33:26;;;;;;;;;;;;;;;;;;2051618;28;19914;-87
2022/06/08 01:34:35;;;;;;;;;;;;;;;;;;2057680;28;19921;-85
2022/06/08 01:35:53;;;;;;;;;;;;;;;;;;2057521;28;20087;-85
2022/06/08 01:37:00;;;;;;;;;;;;;;;;;;2057572;28;20001;-86
2022/06/08 01:38:00;;;;;;;;;;;;;;;;;;2057486;28;19944;-85
2022/06/08 01:39:03;;;;;;;;;;;;;;;;;;2057551;28;20375;-85
2022/06/08 01:40:15;;;;;;;;;;;;;;;;;;2057417;28;19914;-85
2022/06/08 01:41:24;;;;;;;;;;;;;;;;;;2057565;28;20080;-84
2022/06/08 01:42:30;;;;;;;;;;;;;;;;;;2057506;28;20282;-85
2022/06/08 01:43:51;;;;;;;;;;;;;;;;;;2057423;28;19949;-85
2022/06/08 01:46:17;;;;;;;;;;;;;;;;;;2057670;28;19926;-86
2022/06/08 01:47:28;;;;;;;;;;;;;;;;;;2048807;29;19918;-85
2022/06/08 01:48:35;;;;;;;;;;;;;;;;;;2050533;28;19997;-86
2022/06/08 01:49:35;;;;;;;;;;;;;;;;;;2057422;28;20375;-85
2022/06/08 01:50:35;;;;;;;;;;;;;;;;;;2057560;28;19914;-84
2022/06/08 01:51:50;;;;;;;;;;;;;;;;;;2057401;28;19961;-84
2022/06/08 01:52:57;;;;;;;;;;;;;;;;;;2057430;28;20368;-84
2022/06/08 01:54:16;;;;;;;;;;;;;;;;;;2057382;28;20252;-83
2022/06/08 01:55:34;;;;;;;;;;;;;;;;;;2057430;28;19914;-85
2022/06/08 01:56:55;;;;;;;;;;;;;;;;;;2057317;28;19914;-84
2022/06/08 01:58:07;;;;;;;;;;;;;;;;;;2057339;28;19950;-84
2022/06/08 01:59:13;;;;;;;;;;;;;;;;;;2057428;28;19977;-84
2022/06/08 02:00:31;;;;;;;;;;;;;;;;;;2049015;29;19968;-84
2022/06/08 02:01:41;;;;;;;;;;;;;;;;;;2051506;28;19914;-84
2022/06/08 02:02:49;;;;;;;;;;;;;;;;;;2057402;28;20394;-86
2022/06/08 02:03:58;;;;;;;;;;;;;;;;;;2057338;28;19926;-86
2022/06/08 02:05:03;;;;;;;;;;;;;;;;;;2048903;29;19914;-86
2022/06/08 02:06:08;;;;;;;;;;;;;;;;;;2041571;29;20013;-85
2022/06/08 02:07:27;;;;;;;;;;;;;;;;;;2049304;28;20411;-86
2022/06/08 02:08:37;;;;;;;;;;;;;;;;;;2057408;28;19914;-86
2022/06/08 02:09:39;;;;;;;;;;;;;;;;;;2057387;28;19926;-86
2022/06/08 02:10:58;;;;;;;;;;;;;;;;;;2057231;28;19924;-86
2022/06/08 02:12:02;;;;;;;;;;;;;;;;;;2057386;28;19918;-86
2022/06/08 02:13:08;;;;;;;;;;;;;;;;;;2048804;29;20336;-87
2022/06/08 02:14:14;;;;;;;;;;;;;;;;;;2049695;28;19914;-87
2022/06/08 02:15:19;;;;;;;;;;;;;;;;;;2048852;29;20292;-87
2022/06/08 02:16:23;;;;;;;;;;;;;;;;;;2049580;28;19950;-87
2022/06/08 02:17:37;;;;;;;;;;;;;;;;;;2057112;28;19914;-85
2022/06/08 02:18:40;;;;;;;;;;;;;;;;;;2056859;28;19918;-87
2022/06/08 02:20:04;;;;;;;;;;;;;;;;;;2056850;28;19976;-85
2022/06/08 02:21:10;;;;;;;;;;;;;;;;;;2032460;29;19919;-84
2022/06/08 02:22:14;;;;;;;;;;;;;;;;;;2057145;28;20413;-86
2022/06/08 02:23:18;;;;;;;;;;;;;;;;;;2057196;28;19918;-86
2022/06/08 02:24:27;;;;;;;;;;;;;;;;;;2057245;28;19945;-87
2022/06/08 02:25:34;;;;;;;;;;;;;;;;;;2057274;28;19922;-86
2022/06/08 02:26:46;;;;;;;;;;;;;;;;;;2057389;28;19961;-85
2022/06/08 02:27:53;;;;;;;;;;;;;;;;;;2057120;28;19925;-88
2022/06/08 02:28:56;;;;;;;;;;;;;;;;;;2057358;28;20450;-89
2022/06/08 02:30:02;;;;;;;;;;;;;;;;;;2048092;29;20475;-83
2022/06/08 02:31:10;;;;;;;;;;;;;;;;;;2041094;29;19919;-87
2022/06/08 02:34:28;;;;;;;;;;;;;;;;;;2049132;28;19914;-88
2022/06/08 02:34:58;;;;;;;;;;;;;;;;;;2057236;28;19914;-87
2022/06/08 02:36:00;;;;;;;;;;;;;;;;;;2056436;28;19984;-87
2022/06/08 02:37:03;;;;;;;;;;;;;;;;;;2048631;29;19914;-87
2022/06/08 02:38:10;;;;;;;;;;;;;;;;;;2048894;28;19926;-89
2022/06/08 02:39:19;;;;;;;;;;;;;;;;;;2057135;28;20495;-87
2022/06/08 02:40:23;;;;;;;;;;;;;;;;;;2056838;28;19953;-88
2022/06/08 02:41:24;;;;;;;;;;;;;;;;;;2057054;28;19942;-87
2022/06/08 02:42:26;;;;;;;;;;;;;;;;;;2056962;28;19937;-87
2022/06/08 02:43:30;;;;;;;;;;;;;;;;;;2056921;28;20338;-88
2022/06/08 02:44:31;;;;;;;;;;;;;;;;;;2056869;28;19914;-86
2022/06/08 02:45:37;;;;;;;;;;;;;;;;;;2056775;28;20005;-87
2022/06/08 02:46:47;;;;;;;;;;;;;;;;;;2048105;29;20000;-87
2022/06/08 02:47:50;;;;;;;;;;;;;;;;;;2049265;28;20017;-87
2022/06/08 02:48:50;;;;;;;;;;;;;;;;;;2048356;29;20719;-86
2022/06/08 02:49:50;;;;;;;;;;;;;;;;;;2048191;29;19914;-87
2022/06/08 02:50:56;;;;;;;;;;;;;;;;;;2056576;28;19962;-87
2022/06/08 02:52:00;;;;;;;;;;;;;;;;;;2056827;28;19918;-86
2022/06/08 02:53:22;;;;;;;;;;;;;;;;;;2056643;28;20268;-86
2022/06/08 02:54:27;;;;;;;;;;;;;;;;;;2056725;28;20382;-88
2022/06/08 02:55:29;;;;;;;;;;;;;;;;;;2056694;28;20038;-87
2022/06/08 02:56:49;;;;;;;;;;;;;;;;;;2056664;28;20338;-86
2022/06/08 02:57:56;;;;;;;;;;;;;;;;;;2047998;29;19954;-87
2022/06/08 02:59:09;;;;;;;;;;;;;;;;;;2041102;29;20368;-86
2022/06/08 03:00:14;;;;;;;;;;;;;;;;;;2050176;28;19925;-86
2022/06/08 03:01:35;;;;;;;;;;;;;;;;;;2056507;28;20093;-85
2022/06/08 03:02:35;;;;;;;;;;;;;;;;;;2056173;28;19914;-85
2022/06/08 03:03:38;;;;;;;;;;;;;;;;;;2056619;28;19914;-86
2022/06/08 03:04:42;;;;;;;;;;;;;;;;;;2056617;28;20327;-85
2022/06/08 03:05:44;;;;;;;;;;;;;;;;;;2056553;28;19913;-85
2022/06/08 03:06:51;;;;;;;;;;;;;;;;;;2056741;28;19926;-87
2022/06/08 03:08:04;;;;;;;;;;;;;;;;;;2057392;28;19928;-87
2022/06/08 03:09:06;;;;;;;;;;;;;;;;;;2048181;29;19914;-86
2022/06/08 03:10:08;;;;;;;;;;;;;;;;;;2048505;28;19914;-88
2022/06/08 03:11:09;;;;;;;;;;;;;;;;;;2048361;29;19919;-86
2022/06/08 03:12:18;;;;;;;;;;;;;;;;;;2048255;28;19919;-86
2022/06/08 03:13:30;;;;;;;;;;;;;;;;;;2056726;28;20212;-87
2022/06/08 03:14:30;;;;;;;;;;;;;;;;;;2056774;28;19937;-87
2022/06/08 03:15:31;;;;;;;;;;;;;;;;;;2056712;28;20009;-87
2022/06/08 03:16:33;;;;;;;;;;;;;;;;;;2056933;28;19914;-87
2022/06/08 03:17:37;;;;;;;;;;;;;;;;;;2056621;28;19942;-87
2022/06/08 03:18:37;;;;;;;;;;;;;;;;;;2056742;28;19921;-86
2022/06/08 03:19:38;;;;;;;;;;;;;;;;;;2056598;28;20360;-86
2022/06/08 03:20:38;;;;;;;;;;;;;;;;;;2056717;28;19914;-87
2022/06/08 03:21:38;;;;;;;;;;;;;;;;;;2048403;29;19914;-87
2022/06/08 03:22:39;;;;;;;;;;;;;;;;;;2048168;29;19953;-87
2022/06/08 03:23:39;;;;;;;;;;;;;;;;;;2048366;29;20332;-87
2022/06/08 03:24:39;;;;;;;;;;;;;;;;;;2048450;29;19958;-88
2022/06/08 03:25:39;;;;;;;;;;;;;;;;;;2048730;29;19919;-89
2022/06/08 03:26:44;;;;;;;;;;;;;;;;;;2056946;28;19914;-86
2022/06/08 03:27:45;;;;;;;;;;;;;;;;;;2056402;28;20367;-87
2022/06/08 03:28:45;;;;;;;;;;;;;;;;;;2056362;28;19922;-86
2022/06/08 03:29:45;;;;;;;;;;;;;;;;;;2056730;28;20024;-87
2022/06/08 03:30:45;;;;;;;;;;;;;;;;;;2056635;28;19922;-86
2022/06/08 03:31:46;;;;;;;;;;;;;;;;;;2056565;28;19914;-86
2022/06/08 03:32:46;;;;;;;;;;;;;;;;;;2048228;29;19914;-86
2022/06/08 03:33:47;;;;;;;;;;;;;;;;;;2048100;29;20299;-85
2022/06/08 03:34:47;;;;;;;;;;;;;;;;;;2048255;29;19961;-86
2022/06/08 03:35:47;;;;;;;;;;;;;;;;;;2048091;29;19922;-85
2022/06/08 03:36:48;;;;;;;;;;;;;;;;;;2056607;28;20342;-85
2022/06/08 03:37:50;;;;;;;;;;;;;;;;;;2057714;28;20004;-87
2022/06/08 03:38:50;;;;;;;;;;;;;;;;;;2056657;28;20518;-86
2022/06/08 03:39:51;;;;;;;;;;;;;;;;;;2048242;29;20008;-86
2022/06/08 03:40:51;;;;;;;;;;;;;;;;;;2040107;29;19914;-86
2022/06/08 03:41:51;;;;;;;;;;;;;;;;;;2040293;29;19918;-84
2022/06/08 03:42:54;;;;;;;;;;;;;;;;;;2048442;29;19918;-87
2022/06/08 03:43:54;;;;;;;;;;;;;;;;;;2056515;28;19957;-85
2022/06/08 03:44:55;;;;;;;;;;;;;;;;;;2056815;28;20343;-84
2022/06/08 03:46:04;;;;;;;;;;;;;;;;;;2048487;29;19914;-82
2022/06/08 03:47:06;;;;;;;;;;;;;;;;;;2049900;28;19929;-86
2022/06/08 03:48:07;;;;;;;;;;;;;;;;;;2056836;28;20366;-83
2022/06/08 03:49:08;;;;;;;;;;;;;;;;;;2058302;28;19914;-85
2022/06/08 03:50:10;;;;;;;;;;;;;;;;;;2049430;29;19914;-85
2022/06/08 03:51:12;;;;;;;;;;;;;;;;;;2049565;28;19919;-84
2022/06/08 03:52:14;;;;;;;;;;;;;;;;;;2049542;29;19993;-85
2022/06/08 03:53:18;;;;;;;;;;;;;;;;;;2049638;28;19914;-85
2022/06/08 03:54:20;;;;;;;;;;;;;;;;;;2057814;28;19914;-85
2022/06/08 03:55:20;;;;;;;;;;;;;;;;;;2057790;28;19972;-85
2022/06/08 03:56:21;;;;;;;;;;;;;;;;;;2057563;28;19918;-85
2022/06/08 03:57:22;;;;;;;;;;;;;;;;;;2057787;28;20036;-86
2022/06/08 03:58:22;;;;;;;;;;;;;;;;;;2057786;28;19918;-85
2022/06/08 03:59:24;;;;;;;;;;;;;;;;;;2057913;28;19914;-85
2022/06/08 04:00:24;;;;;;;;;;;;;;;;;;2049664;29;20032;-86
2022/06/08 04:01:25;;;;;;;;;;;;;;;;;;2041400;29;19915;-86
2022/06/08 04:02:25;;;;;;;;;;;;;;;;;;2041271;29;20344;-86
2022/06/08 04:03:26;;;;;;;;;;;;;;;;;;2049309;29;19933;-86
2022/06/08 04:04:26;;;;;;;;;;;;;;;;;;2058014;28;19918;-86
2022/06/08 04:05:27;;;;;;;;;;;;;;;;;;2057998;28;20017;-86
2022/06/08 04:06:27;;;;;;;;;;;;;;;;;;2058150;28;19918;-85
2022/06/08 04:07:28;;;;;;;;;;;;;;;;;;2057620;28;19921;-85
2022/06/08 04:08:28;;;;;;;;;;;;;;;;;;2049456;29;19977;-86
2022/06/08 04:09:28;;;;;;;;;;;;;;;;;;2049577;29;20383;-85
2022/06/08 04:10:29;;;;;;;;;;;;;;;;;;2049341;29;19914;-85
2022/06/08 04:11:29;;;;;;;;;;;;;;;;;;2049534;29;19922;-86
2022/06/08 04:12:30;;;;;;;;;;;;;;;;;;2058065;28;19925;-86
2022/06/08 04:13:30;;;;;;;;;;;;;;;;;;2049617;29;19914;-87
2022/06/08 04:14:30;;;;;;;;;;;;;;;;;;2041700;29;19986;-87
2022/06/08 04:15:45;;;;;;;;;;;;;;;;;;2049658;28;20005;-86
2022/06/08 04:16:45;;;;;;;;;;;;;;;;;;2049681;29;20290;-87
2022/06/08 04:17:46;;;;;;;;;;;;;;;;;;2049437;29;19921;-87
2022/06/08 04:18:47;;;;;;;;;;;;;;;;;;2049673;29;19922;-87
2022/06/08 04:19:50;;;;;;;;;;;;;;;;;;2041739;29;19923;-87
2022/06/08 04:20:53;;;;;;;;;;;;;;;;;;2041956;29;19933;-87
2022/06/08 04:21:53;;;;;;;;;;;;;;;;;;2049985;28;19937;-87
2022/06/08 04:22:53;;;;;;;;;;;;;;;;;;2058186;28;20351;-86
2022/06/08 04:23:54;;;;;;;;;;;;;;;;;;2058494;28;20397;-88
2022/06/08 04:24:54;;;;;;;;;;;;;;;;;;2050096;29;19930;-85
2022/06/08 04:25:55;;;;;;;;;;;;;;;;;;2050169;29;19914;-88
2022/06/08 04:26:56;;;;;;;;;;;;;;;;;;2058737;28;19924;-87
2022/06/08 04:27:56;;;;;;;;;;;;;;;;;;2049184;29;19921;-85
2022/06/08 04:28:57;;;;;;;;;;;;;;;;;;2049678;29;19914;-87
2022/06/08 04:29:57;;;;;;;;;;;;;;;;;;2049357;29;19918;-88
2022/06/08 04:30:58;;;;;;;;;;;;;;;;;;2049254;29;19997;-87
2022/06/08 04:31:58;;;;;;;;;;;;;;;;;;2057690;28;19920;-88
2022/06/08 04:32:58;;;;;;;;;;;;;;;;;;2049581;29;19953;-87
2022/06/08 04:33:59;;;;;;;;;;;;;;;;;;2049596;29;19915;-87
2022/06/08 04:35:03;;;;;;;;;;;;;;;;;;2058067;28;20279;-88
2022/06/08 04:36:05;;;;;;;;;;;;;;;;;;2058160;28;19921;-87
2022/06/08 04:37:05;;;;;;;;;;;;;;;;;;2049448;29;19914;-89
2022/06/08 04:38:06;;;;;;;;;;;;;;;;;;2049511;29;20444;-88
2022/06/08 04:39:08;;;;;;;;;;;;;;;;;;2057765;28;19914;-87
2022/06/08 04:40:09;;;;;;;;;;;;;;;;;;2058213;28;19914;-85
2022/06/08 04:41:10;;;;;;;;;;;;;;;;;;2057749;28;20286;-87
2022/06/08 04:42:10;;;;;;;;;;;;;;;;;;2057737;28;19915;-87
2022/06/08 04:43:10;;;;;;;;;;;;;;;;;;2049495;29;19985;-86
2022/06/08 04:44:11;;;;;;;;;;;;;;;;;;2049330;29;20026;-87
2022/06/08 04:45:12;;;;;;;;;;;;;;;;;;2057938;28;20186;-88
2022/06/08 04:46:15;;;;;;;;;;;;;;;;;;2057844;28;20413;-88
2022/06/08 04:47:15;;;;;;;;;;;;;;;;;;2057715;28;20283;-88
2022/06/08 04:48:16;;;;;;;;;;;;;;;;;;2057773;28;19910;-87
2022/06/08 04:49:16;;;;;;;;;;;;;;;;;;2057811;28;20060;-83
2022/06/08 04:50:16;;;;;;;;;;;;;;;;;;2058073;28;19914;-88
2022/06/08 04:51:17;;;;;;;;;;;;;;;;;;2057950;28;19980;-87
2022/06/08 04:52:17;;;;;;;;;;;;;;;;;;2049235;29;20001;-87
2022/06/08 04:53:18;;;;;;;;;;;;;;;;;;2049414;29;19925;-90
2022/06/08 04:54:18;;;;;;;;;;;;;;;;;;2049272;29;19950;-88
2022/06/08 04:55:18;;;;;;;;;;;;;;;;;;2049354;29;19914;-90
2022/06/08 04:56:21;;;;;;;;;;;;;;;;;;2057393;28;20455;-89
2022/06/08 04:57:24;;;;;;;;;;;;;;;;;;2057803;28;19925;-88
2022/06/08 04:58:26;;;;;;;;;;;;;;;;;;2057678;28;19914;-86
2022/06/08 04:59:27;;;;;;;;;;;;;;;;;;2057337;28;19918;-88
2022/06/08 05:00:27;;;;;;;;;;;;;;;;;;2057449;28;19914;-87
2022/06/08 05:01:28;;;;;;;;;;;;;;;;;;2057486;28;20016;-88
2022/06/08 05:02:44;;;;;;;;;;;;;;;;;;2057541;28;19925;-86
2022/06/08 05:03:44;;;;;;;;;;;;;;;;;;2057608;28;20373;-89
2022/06/08 05:04:45;;;;;;;;;;;;;;;;;;2056752;28;19921;-86
2022/06/08 05:05:45;;;;;;;;;;;;;;;;;;2056948;28;19914;-85
2022/06/08 05:06:47;;;;;;;;;;;;;;;;;;2057678;28;19915;-88
2022/06/08 05:07:48;;;;;;;;;;;;;;;;;;2057655;28;19980;-88
2022/06/08 05:08:49;;;;;;;;;;;;;;;;;;2057624;28;19925;-89
2022/06/08 05:09:49;;;;;;;;;;;;;;;;;;2057714;28;19914;-87
2022/06/08 05:10:50;;;;;;;;;;;;;;;;;;2057493;28;19918;-86
2022/06/08 05:11:50;;;;;;;;;;;;;;;;;;2057737;28;19914;-86
2022/06/08 05:12:51;;;;;;;;;;;;;;;;;;2057709;28;20138;-85
2022/06/08 05:13:52;;;;;;;;;;;;;;;;;;2057568;28;20386;-85
2022/06/08 05:14:52;;;;;;;;;;;;;;;;;;2057517;28;19914;-85
2022/06/08 05:15:52;;;;;;;;;;;;;;;;;;2057703;28;19914;-85
2022/06/08 05:16:53;;;;;;;;;;;;;;;;;;2057464;28;19921;-85
2022/06/08 05:17:53;;;;;;;;;;;;;;;;;;2057614;28;19914;-87
2022/06/08 05:18:53;;;;;;;;;;;;;;;;;;2049148;29;19918;-88
2022/06/08 05:19:56;;;;;;;;;;;;;;;;;;2048939;29;20291;-88
2022/06/08 05:20:57;;;;;;;;;;;;;;;;;;2057416;28;19953;-85
2022/06/08 05:21:57;;;;;;;;;;;;;;;;;;2057430;28;19929;-86
2022/06/08 05:22:58;;;;;;;;;;;;;;;;;;2057456;28;20367;-85
2022/06/08 05:23:58;;;;;;;;;;;;;;;;;;2057478;28;19972;-88
2022/06/08 05:25:00;;;;;;;;;;;;;;;;;;2057631;28;19921;-89
2022/06/08 05:26:02;;;;;;;;;;;;;;;;;;2057689;28;19989;-86
2022/06/08 05:27:02;;;;;;;;;;;;;;;;;;2057625;28;19914;-86
2022/06/08 05:28:03;;;;;;;;;;;;;;;;;;2057516;28;20024;-86
2022/06/08 05:29:04;;;;;;;;;;;;;;;;;;2053007;28;19918;-86
2022/06/08 05:30:05;;;;;;;;;;;;;;;;;;2041315;29;19978;-86
2022/06/08 05:31:06;;;;;;;;;;;;;;;;;;2041293;29;19982;-85
2022/06/08 05:32:06;;;;;;;;;;;;;;;;;;2049614;29;20470;-87
2022/06/08 05:33:07;;;;;;;;;;;;;;;;;;2052075;28;19933;-85
2022/06/08 05:34:08;;;;;;;;;;;;;;;;;;2049590;29;20016;-86
2022/06/08 05:35:09;;;;;;;;;;;;;;;;;;2051248;28;20000;-88
2022/06/08 05:36:09;;;;;;;;;;;;;;;;;;2055897;28;20339;-86
2022/06/08 05:37:10;;;;;;;;;;;;;;;;;;2057375;28;19925;-86
2022/06/08 05:38:11;;;;;;;;;;;;;;;;;;2057520;28;19922;-86
2022/06/08 05:39:12;;;;;;;;;;;;;;;;;;2056924;28;19914;-87
2022/06/08 05:40:19;;;;;;;;;;;;;;;;;;2049049;29;20323;-86
2022/06/08 05:41:20;;;;;;;;;;;;;;;;;;2052384;28;19925;-86
2022/06/08 05:42:21;;;;;;;;;;;;;;;;;;2057098;28;20382;-86
2022/06/08 05:43:21;;;;;;;;;;;;;;;;;;2057095;28;19915;-86
2022/06/08 05:44:22;;;;;;;;;;;;;;;;;;2057576;28;19914;-87
2022/06/08 05:45:24;;;;;;;;;;;;;;;;;;2057481;28;20005;-86
2022/06/08 05:46:24;;;;;;;;;;;;;;;;;;2057645;28;19972;-86
2022/06/08 05:47:25;;;;;;;;;;;;;;;;;;2057417;28;19914;-87
2022/06/08 05:48:25;;;;;;;;;;;;;;;;;;2048988;29;19915;-86
2022/06/08 05:49:25;;;;;;;;;;;;;;;;;;2048906;29;19925;-88
2022/06/08 05:50:27;;;;;;;;;;;;;;;;;;2049054;29;19980;-86
2022/06/08 05:51:29;;;;;;;;;;;;;;;;;;2057598;28;19914;-86
2022/06/08 05:52:30;;;;;;;;;;;;;;;;;;2057480;28;19968;-86
2022/06/08 05:53:30;;;;;;;;;;;;;;;;;;2057434;28;20334;-86
2022/06/08 05:54:32;;;;;;;;;;;;;;;;;;2048730;29;19918;-87
2022/06/08 05:55:33;;;;;;;;;;;;;;;;;;2048889;28;20001;-88
2022/06/08 05:56:33;;;;;;;;;;;;;;;;;;2057015;28;19914;-87
2022/06/08 05:57:34;;;;;;;;;;;;;;;;;;2057005;28;19914;-88
2022/06/08 05:58:34;;;;;;;;;;;;;;;;;;2056529;28;19918;-87
2022/06/08 05:59:36;;;;;;;;;;;;;;;;;;2056046;28;19918;-86
2022/06/08 06:00:38;;;;;;;;;;;;;;;;;;2056725;28;19993;-89
2022/06/08 06:01:38;;;;;;;;;;;;;;;;;;2057263;28;19921;-86
2022/06/08 06:02:38;;;;;;;;;;;;;;;;;;2056911;28;20277;-88
2022/06/08 06:03:39;;;;;;;;;;;;;;;;;;2057320;28;19914;-86
2022/06/08 06:04:40;;;;;;;;;;;;;;;;;;2057231;28;19985;-86
2022/06/08 06:05:41;;;;;;;;;;;;;;;;;;2057412;28;19922;-86
2022/06/08 06:06:45;;;;;;;;;;;;;;;;;;2048710;29;20001;-85
2022/06/08 06:07:46;;;;;;;;;;;;;;;;;;2048753;29;20426;-87
2022/06/08 06:08:46;;;;;;;;;;;;;;;;;;2048740;29;19926;-86
2022/06/08 06:09:47;;;;;;;;;;;;;;;;;;2056818;28;19933;-86
2022/06/08 06:10:47;;;;;;;;;;;;;;;;;;2056514;28;19914;-86
2022/06/08 06:11:49;;;;;;;;;;;;;;;;;;2057299;28;19924;-85
2022/06/08 06:12:54;;;;;;;;;;;;;;;;;;2057223;28;19938;-86
2022/06/08 06:13:54;;;;;;;;;;;;;;;;;;2057422;28;19917;-86
2022/06/08 06:14:58;;;;;;;;;;;;;;;;;;2057218;28;19914;-86
2022/06/08 06:15:58;;;;;;;;;;;;;;;;;;2057198;28;20146;-86
2022/06/08 06:16:58;;;;;;;;;;;;;;;;;;2057151;28;19921;-89
2022/06/08 06:17:59;;;;;;;;;;;;;;;;;;2057049;28;19954;-87
2022/06/08 06:19:02;;;;;;;;;;;;;;;;;;2057237;28;19918;-88
2022/06/08 06:20:06;;;;;;;;;;;;;;;;;;2057481;28;19914;-87
2022/06/08 06:21:06;;;;;;;;;;;;;;;;;;2048532;29;20391;-86
2022/06/08 06:22:08;;;;;;;;;;;;;;;;;;2048868;29;19953;-88
2022/06/08 06:23:08;;;;;;;;;;;;;;;;;;2057120;28;19914;-87
2022/06/08 06:24:08;;;;;;;;;;;;;;;;;;2057182;28;20251;-86
2022/06/08 06:25:10;;;;;;;;;;;;;;;;;;2056656;28;20010;-87
2022/06/08 06:26:10;;;;;;;;;;;;;;;;;;2056750;28;20351;-88
2022/06/08 06:27:10;;;;;;;;;;;;;;;;;;2057124;28;19924;-87
2022/06/08 06:28:10;;;;;;;;;;;;;;;;;;2057109;28;20351;-85
2022/06/08 06:29:11;;;;;;;;;;;;;;;;;;2057295;28;20000;-86
2022/06/08 06:30:11;;;;;;;;;;;;;;;;;;2056882;28;20140;-88
2022/06/08 06:31:20;;;;;;;;;;;;;;;;;;2057235;28;19918;-87
2022/06/08 06:32:33;;;;;;;;;;;;;;;;;;2057226;28;19918;-88
2022/06/08 06:33:34;;;;;;;;;;;;;;;;;;2057129;28;19922;-89
2022/06/08 06:34:34;;;;;;;;;;;;;;;;;;2057135;28;19918;-88
2022/06/08 06:35:34;;;;;;;;;;;;;;;;;;2056406;28;19921;-86
2022/06/08 06:36:37;;;;;;;;;;;;;;;;;;2056801;28;19937;-89
2022/06/08 06:37:37;;;;;;;;;;;;;;;;;;2057210;28;19914;-87
2022/06/08 06:38:38;;;;;;;;;;;;;;;;;;2057233;28;19914;-85
2022/06/08 06:39:38;;;;;;;;;;;;;;;;;;2057171;28;19965;-87
2022/06/08 06:40:38;;;;;;;;;;;;;;;;;;2057264;28;20343;-87
2022/06/08 06:41:39;;;;;;;;;;;;;;;;;;2057184;28;19918;-86
2022/06/08 06:42:39;;;;;;;;;;;;;;;;;;2056877;28;19918;-87
2022/06/08 06:43:40;;;;;;;;;;;;;;;;;;2048543;29;20013;-86
2022/06/08 06:44:40;;;;;;;;;;;;;;;;;;2048659;29;19915;-88
2022/06/08 06:45:40;;;;;;;;;;;;;;;;;;2057142;28;19922;-89
2022/06/08 06:46:41;;;;;;;;;;;;;;;;;;2057091;28;19950;-88
2022/06/08 06:47:41;;;;;;;;;;;;;;;;;;2056914;28;19923;-88
2022/06/08 06:48:42;;;;;;;;;;;;;;;;;;2057120;28;19976;-88
2022/06/08 06:49:42;;;;;;;;;;;;;;;;;;2057094;28;20020;-89
2022/06/08 06:50:42;;;;;;;;;;;;;;;;;;2048733;29;19915;-88
2022/06/08 06:51:45;;;;;;;;;;;;;;;;;;2048819;29;20021;-85
2022/06/08 06:52:45;;;;;;;;;;;;;;;;;;2057260;28;20362;-88
2022/06/08 06:53:46;;;;;;;;;;;;;;;;;;2057222;28;19914;-89
2022/06/08 06:54:47;;;;;;;;;;;;;;;;;;2057209;28;19987;-89
2022/06/08 06:55:47;;;;;;;;;;;;;;;;;;2057305;28;20351;-89
2022/06/08 06:56:47;;;;;;;;;;;;;;;;;;2057217;28;19924;-89
2022/06/08 06:57:51;;;;;;;;;;;;;;;;;;2057062;28;20363;-88
2022/06/08 06:58:51;;;;;;;;;;;;;;;;;;2056593;28;19914;-90
2022/06/08 06:59:54;;;;;;;;;;;;;;;;;;2056765;28;19914;-89
2022/06/08 07:00:54;;;;;;;;;;;;;;;;;;2057215;28;19937;-88
2022/06/08 07:01:54;;;;;;;;;;;;;;;;;;2057097;28;19914;-90
2022/06/08 07:02:55;;;;;;;;;;;;;;;;;;2057192;28;20399;-88
2022/06/08 07:03:55;;;;;;;;;;;;;;;;;;2057250;28;19945;-88
2022/06/08 07:04:55;;;;;;;;;;;;;;;;;;2057091;28;20005;-88
2022/06/08 07:05:56;;;;;;;;;;;;;;;;;;2057090;28;19918;-87
2022/06/08 07:06:56;;;;;;;;;;;;;;;;;;2057130;28;19914;-87
2022/06/08 07:07:56;;;;;;;;;;;;;;;;;;2047579;29;20192;-84
2022/06/08 07:08:59;;;;;;;;;;;;;;;;;;2047970;29;20009;-86
2022/06/08 07:09:59;;;;;;;;;;;;;;;;;;2048196;29;20446;-88
2022/06/08 07:12:18;;;;;;;;;;;;;;;;;;2054844;28;20005;-89
2022/06/08 07:13:18;;;;;;;;;;;;;;;;;;2046705;29;20263;-89